La Palma > ESTACION METEOROLÓGICA Finca Nogales - Puntallana

DATOS ACTUALES Online

Ultima actulizacion 4 minutos

21 ºC

Temperatura

97

Humedad (%)

1012.4

Presión (mb)

0.4

Precipitación (mm)

0 SW

Viento (Km/h)

DATOS DIARIOS

Temperatura últimas 24 horas (ºC)

Humedad últimas 24 horas (%)

Presión atmosférica últimas 24 horas (mb)

Precipitaciones últimas 23 horas (mm)

Viento últimas 24 horas (Km/h)

Hora Temperatura (°C) ºC Precipitación (mm) mm Presión (mb) mb Humedad (%) % Viento (Km/h) km/h
25 - 00:00 21.3 0.2 1017 79 0 SW
25 - 01:00 20.6 0.2 1016 86 0 SW
25 - 02:00 20.8 0.2 1016 82 0 SW
25 - 03:00 21.2 0.2 1015 81 0 SW
25 - 04:00 21.2 0.2 1015 80 0 SW
25 - 05:00 21.3 0.2 1014 81 0 SW
25 - 06:00 21.4 0.2 1014 82 0 SW
25 - 07:00 21.2 0.2 1015 82 4.68 SE
25 - 08:00
25 - 09:00 20.8 0.2 1016 90 1.62 SE
25 - 10:00 20.8 1.2 1016 91 1.62 SE
25 - 11:00 20.2 2.8 1016 93 0 SE
25 - 12:00 19.8 4.8 1016 94 1.62 SE
25 - 13:00 20.2 6 1015 95 0 SE
25 - 14:00 20.1 7.4 1015 95 0 SE
25 - 15:00 19.9 9.2 1014 95 0 SE
25 - 16:00 20.2 11.4 1014 96 0 S
25 - 17:00 20.6 13.4 1013 96 0 SE
25 - 18:00 20.4 19.8 1014 95 3.06 E
25 - 19:00 20.7 23.2 1013 96 0 SE
25 - 20:00 20.9 26 1013 96 1.62 S
25 - 21:00 20.9 31.6 1013 96 0 SW
25 - 22:00 20.9 36.4 1013 96 1.62 SW
25 - 23:00 20.8 37.6 1013 96 3.06 S
26 - 00:00 21 0.4 1012 97 0 SW
Apalmet utiliza cookies propias y de terceros para mejorar la usabilidad y la experiencia web. Política de cookies.